Decoded Metar for KBGM (BINGHAMTON in NY, USA) (IATA:BGM) | Meteo·Mobile Aviation Weather
aviador You're here:

KBGM Decoded Metar

BINGHAMTON in NY, USA
Report Time2019-10-18 14:26:00
UTC Time2019-10-18 14:39:03
Flight Rules ifr IFR
Wind300° at 09 Gusting to 16 kt
W.Decomp.*RWY 34: 7.9 kt HW 4.2 kt LCW
RWY 28: 7.6 kt HW 4.8 kt RCW
Visibility6437 m
Phenomena:Light Rain
Mist
Clouds:Overcast 009 Hf
Expected CloudBase > 400 ft AGL from Temp-Dew spread
Ceiling900 ft
Temp04°C (ISA -8)
Dew Point03°C (93% RH)
AAT-0.7°C
QNH1012 hPa
Density Alt810 ft
Elevation1,608 ft
Report Wrong Elevation
Raw Report
KBGM 181426Z 30009G16KT 4SM -RA BR OVC009 04/03 A2989 RMK AO2 CIG
007V012 P0000 T00390028=

Extra information for KBGM:More info

Metar Taf Metar & Taf Last 4 Metars F.Rules Stats Wind Profile Meteogram Temp Stats Airport Information Weather charts Add Link Nearby VenuesMetar ALERT Operation Metar Decoded Social comments

AIRNAV info for KBGM